Time;durP1;ratioP1;P1;durP2;ratioP2;P2;SDS_P1;SDS_P2;PMS_P1;PMS_P2;Temp;Humidity;BMP_temperature;BMP_pressure;BME280_temperature;BME280_humidity;BME280_pressure;Samples;Min_cycle;Max_cycle;Signal;HPM_P1;HPM_P2
2023/06/05 00:02:13;;;;;;;;;;;;;;;21.50;70.17;102142.44;5058965;28;19908;-54
2023/06/05 00:04:39;;;;;;;;;;;;;;;21.49;71.17;102138.88;5062639;28;19919;-55
2023/06/05 00:07:05;;;;;;;;;;;;;;;21.51;70.56;102145.97;5057801;28;19939;-50
2023/06/05 00:09:30;;;;;;;;;;;;;;;21.54;70.51;102140.06;5060756;28;19917;-54
2023/06/05 00:11:56;;;;;;;;;;;;;;;21.53;71.06;102141.13;5059962;28;19917;-56
2023/06/05 00:14:21;;;;;;;;;;;;;;;21.58;70.75;102136.63;5059445;28;19917;-52
2023/06/05 00:16:46;;;;;;;;;;;;;;;21.29;72.30;102133.81;5062397;28;19955;-57
2023/06/05 00:19:12;;;;;;;;;;;;;;;21.04;74.43;102142.16;5061075;28;19977;-53
2023/06/05 00:21:37;;;;;;;;;;;;;;;20.90;76.09;102142.41;5062444;28;19928;-56
2023/06/05 00:24:02;;;;;;;;;;;;;;;20.90;77.05;102139.69;5058131;28;19913;-55
2023/06/05 00:26:28;;;;;;;;;;;;;;;20.98;76.80;102146.66;5061772;28;19913;-54
2023/06/05 00:28:55;;;;;;;;;;;;;;;20.89;77.69;102145.34;5057364;28;19951;-53
2023/06/05 00:31:21;;;;;;;;;;;;;;;20.79;78.84;102145.88;5057076;28;19916;-56
2023/06/05 00:33:48;;;;;;;;;;;;;;;21.33;75.52;102148.59;5062216;28;19968;-56
2023/06/05 00:36:13;;;;;;;;;;;;;;;21.02;76.32;102144.28;5059257;28;19916;-52
2023/06/05 00:38:39;;;;;;;;;;;;;;;20.97;77.56;102146.91;5056017;28;19913;-55
2023/06/05 00:41:05;;;;;;;;;;;;;;;21.19;75.30;102145.28;5059782;28;19916;-54
2023/06/05 00:43:30;;;;;;;;;;;;;;;20.57;80.34;102151.03;5042887;28;19919;-53
2023/06/05 00:46:02;;;;;;;;;;;;;;;20.54;81.40;102156.94;5060691;28;19939;-53
2023/06/05 00:48:28;;;;;;;;;;;;;;;20.32;83.80;102152.81;5041265;28;19920;-55
2023/06/05 00:50:54;;;;;;;;;;;;;;;20.22;85.48;102148.97;5056528;28;19921;-54
2023/06/05 00:53:20;;;;;;;;;;;;;;;20.25;85.25;102146.63;5057321;28;19936;-54
2023/06/05 00:55:46;;;;;;;;;;;;;;;20.24;85.93;102155.00;5038982;28;19913;-57
2023/06/05 00:58:12;;;;;;;;;;;;;;;20.23;86.01;102148.75;5040398;28;19970;-53
2023/06/05 01:00:39;;;;;;;;;;;;;;;20.03;87.77;102151.69;5056405;28;19913;-55
2023/06/05 01:03:08;;;;;;;;;;;;;;;20.28;85.99;102150.75;5057556;28;19939;-52
2023/06/05 01:05:36;;;;;;;;;;;;;;;20.33;85.63;102150.94;5037964;28;19913;-55
2023/06/05 01:08:03;;;;;;;;;;;;;;;20.23;87.03;102145.19;5060654;28;19921;-49
2023/06/05 01:10:29;;;;;;;;;;;;;;;20.36;85.78;102147.75;5055438;28;19917;-55
2023/06/05 01:13:00;;;;;;;;;;;;;;;20.11;88.24;102148.69;5055616;28;19927;-55
2023/06/05 01:15:31;;;;;;;;;;;;;;;20.13;88.38;102145.72;5035810;28;19916;-52
2023/06/05 01:18:00;;;;;;;;;;;;;;;20.04;89.70;102147.94;5056165;28;19969;-56
2023/06/05 01:20:51;;;;;;;;;;;;;;;20.01;90.22;102137.53;5039669;28;19917;-55
2023/06/05 01:23:17;;;;;;;;;;;;;;;19.47;95.10;102132.66;5053681;28;19939;-56
2023/06/05 01:25:44;;;;;;;;;;;;;;;19.90;92.72;102131.78;5057179;28;19976;-57
2023/06/05 01:28:20;;;;;;;;;;;;;;;19.94;91.92;102134.06;5059528;28;19912;-54
2023/06/05 01:30:53;;;;;;;;;;;;;;;19.79;93.63;102129.81;5055863;28;19913;-54
2023/06/05 01:33:26;;;;;;;;;;;;;;;19.87;92.12;102132.25;5042191;28;19924;-56
2023/06/05 01:35:53;;;;;;;;;;;;;;;19.93;91.63;102122.38;5057542;28;19917;-56
2023/06/05 01:38:19;;;;;;;;;;;;;;;19.97;91.09;102134.44;5058783;28;19973;-56
2023/06/05 01:40:44;;;;;;;;;;;;;;;19.95;91.03;102130.28;5059559;28;19913;-54
2023/06/05 01:43:11;;;;;;;;;;;;;;;19.89;90.95;102130.13;5061414;28;19935;-54
2023/06/05 01:45:40;;;;;;;;;;;;;;;19.78;92.82;102126.28;5039611;28;19912;-55
2023/06/05 01:48:08;;;;;;;;;;;;;;;19.96;90.89;102124.66;5059585;28;19905;-56
2023/06/05 01:50:36;;;;;;;;;;;;;;;19.89;91.52;102127.41;5058798;28;19919;-54
2023/06/05 01:53:02;;;;;;;;;;;;;;;19.89;91.79;102121.13;5057381;28;19925;-53
2023/06/05 01:55:28;;;;;;;;;;;;;;;19.82;91.91;102126.63;5039311;28;19913;-54
2023/06/05 01:57:53;;;;;;;;;;;;;;;19.87;92.02;102124.09;5054352;28;19947;-55
2023/06/05 02:00:19;;;;;;;;;;;;;;;19.85;91.98;102123.50;5041898;28;19920;-57
2023/06/05 02:02:47;;;;;;;;;;;;;;;19.74;93.39;102125.09;5041840;28;19913;-52
2023/06/05 02:05:13;;;;;;;;;;;;;;;19.55;95.17;102118.78;5035224;28;19912;-53
2023/06/05 02:07:39;;;;;;;;;;;;;;;19.78;93.41;102120.00;5039407;28;19913;-51
2023/06/05 02:10:08;;;;;;;;;;;;;;;19.77;92.78;102123.78;5035756;28;19913;-53
2023/06/05 02:12:34;;;;;;;;;;;;;;;19.69;94.04;102113.22;5037931;28;19921;-55
2023/06/05 02:15:00;;;;;;;;;;;;;;;19.72;93.95;102115.50;5042290;28;20011;-55
2023/06/05 02:17:25;;;;;;;;;;;;;;;19.65;94.83;102114.75;5039840;28;19992;-51
2023/06/05 02:19:51;;;;;;;;;;;;;;;19.41;96.26;102106.44;5039297;28;19929;-53
2023/06/05 02:22:17;;;;;;;;;;;;;;;19.44;98.15;102106.81;5037787;28;19955;-52
2023/06/05 02:24:43;;;;;;;;;;;;;;;19.55;97.24;102104.41;5038507;28;19913;-52
2023/06/05 02:27:10;;;;;;;;;;;;;;;19.54;96.13;102108.19;5034936;28;19941;-52
2023/06/05 02:29:39;;;;;;;;;;;;;;;19.42;98.08;102108.91;5039139;28;19980;-55
2023/06/05 02:32:05;;;;;;;;;;;;;;;19.28;99.93;102104.69;5037821;28;19931;-52
2023/06/05 02:34:32;;;;;;;;;;;;;;;19.19;100.00;102101.44;5044026;28;19967;-53
2023/06/05 02:36:58;;;;;;;;;;;;;;;19.34;99.52;102101.06;5041455;28;19920;-56
2023/06/05 02:39:24;;;;;;;;;;;;;;;19.30;99.89;102114.25;5041568;28;19913;-55
2023/06/05 02:41:50;;;;;;;;;;;;;;;19.33;100.00;102108.38;5043377;28;19944;-52
2023/06/05 02:44:16;;;;;;;;;;;;;;;19.36;98.96;102101.69;5045263;28;19943;-52
2023/06/05 02:46:42;;;;;;;;;;;;;;;19.26;100.00;102099.47;5042370;28;19984;-52
2023/06/05 02:49:08;;;;;;;;;;;;;;;19.02;100.00;102103.84;5044416;28;19920;-55
2023/06/05 02:51:33;;;;;;;;;;;;;;;19.21;100.00;102096.59;5044638;28;19917;-51
2023/06/05 02:53:59;;;;;;;;;;;;;;;19.23;100.00;102090.94;5044244;28;19914;-54
2023/06/05 02:56:26;;;;;;;;;;;;;;;19.32;100.00;102100.47;5043920;28;19935;-55
2023/06/05 02:58:53;;;;;;;;;;;;;;;19.00;100.00;102087.81;5042838;28;19917;-55
2023/06/05 03:01:18;;;;;;;;;;;;;;;19.12;100.00;102095.22;5043853;28;19998;-56
2023/06/05 03:03:48;;;;;;;;;;;;;;;18.93;100.00;102095.16;5041233;28;19997;-51
2023/06/05 03:06:17;;;;;;;;;;;;;;;18.84;100.00;102091.03;5044348;28;19910;-54
2023/06/05 03:08:46;;;;;;;;;;;;;;;18.89;100.00;102093.91;5043993;28;19917;-56
2023/06/05 03:11:16;;;;;;;;;;;;;;;18.68;100.00;102079.69;5028037;28;19992;-53
2023/06/05 03:13:41;;;;;;;;;;;;;;;19.00;100.00;102098.66;5030922;28;19932;-57
2023/06/05 03:16:07;;;;;;;;;;;;;;;18.77;100.00;102083.81;5026514;28;19910;-56
2023/06/05 03:18:38;;;;;;;;;;;;;;;18.94;100.00;102085.97;5033508;28;21909;-54
2023/06/05 03:21:03;;;;;;;;;;;;;;;18.93;100.00;102087.03;5031884;28;19920;-51
2023/06/05 03:23:29;;;;;;;;;;;;;;;19.08;100.00;102092.13;5029035;28;19913;-55
2023/06/05 03:25:57;;;;;;;;;;;;;;;18.89;100.00;102089.34;5033503;28;19949;-53
2023/06/05 03:28:24;;;;;;;;;;;;;;;18.78;100.00;102090.88;5025826;28;19945;-53
2023/06/05 03:30:52;;;;;;;;;;;;;;;18.83;100.00;102089.38;5030562;28;19944;-53
2023/06/05 03:33:20;;;;;;;;;;;;;;;18.70;100.00;102077.59;5031904;28;19924;-56
2023/06/05 03:35:49;;;;;;;;;;;;;;;18.62;100.00;102084.13;5035328;28;19920;-57
2023/06/05 03:38:14;;;;;;;;;;;;;;;18.87;100.00;102086.03;5028692;28;19976;-53
2023/06/05 03:40:40;;;;;;;;;;;;;;;18.70;100.00;102083.03;5035028;28;19913;-56
2023/06/05 03:43:08;;;;;;;;;;;;;;;18.70;100.00;102087.59;5029206;28;19918;-56
2023/06/05 03:45:36;;;;;;;;;;;;;;;18.62;100.00;102077.84;5031648;28;19917;-55
2023/06/05 03:48:02;;;;;;;;;;;;;;;18.73;100.00;102077.16;5024591;28;19914;-54
2023/06/05 03:50:33;;;;;;;;;;;;;;;18.51;100.00;102078.56;5027138;28;19913;-52
2023/06/05 03:53:03;;;;;;;;;;;;;;;18.74;100.00;102080.69;5028053;28;19918;-54
2023/06/05 03:55:44;;;;;;;;;;;;;;;18.57;100.00;102080.41;5024966;28;20048;-56
2023/06/05 03:58:15;;;;;;;;;;;;;;;18.58;100.00;102072.06;5033176;28;19917;-52
2023/06/05 04:00:44;;;;;;;;;;;;;;;18.19;100.00;102077.50;5023761;28;19920;-54
2023/06/05 04:03:10;;;;;;;;;;;;;;;18.31;100.00;102076.81;5025486;28;19917;-56
2023/06/05 04:05:38;;;;;;;;;;;;;;;18.51;100.00;102082.09;5027263;28;19914;-53
2023/06/05 04:08:03;;;;;;;;;;;;;;;18.40;100.00;102075.50;5025363;28;19914;-51
2023/06/05 04:10:29;;;;;;;;;;;;;;;18.57;100.00;102077.69;5018192;28;19950;-54
2023/06/05 04:12:55;;;;;;;;;;;;;;;18.59;100.00;102072.88;5023050;28;20423;-56
2023/06/05 04:15:20;;;;;;;;;;;;;;;18.69;100.00;102080.53;5024994;28;19913;-56
2023/06/05 04:17:47;;;;;;;;;;;;;;;18.80;100.00;102085.25;5024033;28;19913;-54
2023/06/05 04:20:14;;;;;;;;;;;;;;;18.61;100.00;102074.34;5026274;28;19921;-56
2023/06/05 04:22:41;;;;;;;;;;;;;;;18.55;100.00;102082.50;5023702;28;19965;-53
2023/06/05 04:25:08;;;;;;;;;;;;;;;18.53;100.00;102082.72;5021104;28;19924;-52
2023/06/05 04:27:33;;;;;;;;;;;;;;;18.66;100.00;102092.63;5017799;28;19913;-54
2023/06/05 04:29:59;;;;;;;;;;;;;;;18.76;100.00;102087.56;5023575;28;19920;-53
2023/06/05 04:32:25;;;;;;;;;;;;;;;18.74;100.00;102081.53;5022350;28;19960;-54
2023/06/05 04:34:52;;;;;;;;;;;;;;;18.59;100.00;102092.69;5023609;28;19928;-56
2023/06/05 04:37:17;;;;;;;;;;;;;;;18.59;100.00;102089.13;5022173;28;19920;-51
2023/06/05 04:39:43;;;;;;;;;;;;;;;18.68;100.00;102089.72;5023860;28;19913;-52
2023/06/05 04:42:09;;;;;;;;;;;;;;;18.56;100.00;102089.59;5009131;28;19909;-50
2023/06/05 04:44:37;;;;;;;;;;;;;;;18.65;100.00;102093.66;5020091;28;19924;-50
2023/06/05 04:47:06;;;;;;;;;;;;;;;18.66;100.00;102099.94;5023019;28;19977;-53
2023/06/05 04:49:32;;;;;;;;;;;;;;;18.65;100.00;102095.56;5020090;28;19913;-52
2023/06/05 04:51:59;;;;;;;;;;;;;;;18.54;100.00;102099.81;5026101;28;20384;-52
2023/06/05 04:54:25;;;;;;;;;;;;;;;18.86;100.00;102100.63;5018958;28;19925;-50
2023/06/05 04:56:52;;;;;;;;;;;;;;;18.95;100.00;102100.34;5020344;28;19917;-53
2023/06/05 04:59:20;;;;;;;;;;;;;;;18.92;100.00;102104.34;5026181;28;19921;-50
2023/06/05 05:01:46;;;;;;;;;;;;;;;18.87;100.00;102109.56;5026011;28;19917;-52
2023/06/05 05:04:12;;;;;;;;;;;;;;;18.84;100.00;102105.44;5024665;28;19944;-56
2023/06/05 05:06:40;;;;;;;;;;;;;;;18.88;100.00;102111.22;5019773;28;19976;-55
2023/06/05 05:09:06;;;;;;;;;;;;;;;19.02;100.00;102118.25;5024191;28;19936;-56
2023/06/05 05:11:31;;;;;;;;;;;;;;;18.89;100.00;102118.31;5041833;28;19972;-50
2023/06/05 05:13:57;;;;;;;;;;;;;;;18.85;100.00;102119.81;5040602;28;19944;-53
2023/06/05 05:16:22;;;;;;;;;;;;;;;19.07;100.00;102123.00;5034385;28;19913;-53
2023/06/05 05:18:48;;;;;;;;;;;;;;;18.94;100.00;102117.66;5039128;28;19913;-54
2023/06/05 05:21:14;;;;;;;;;;;;;;;18.71;100.00;102119.91;5041088;28;19972;-53
2023/06/05 05:23:41;;;;;;;;;;;;;;;18.96;100.00;102120.97;5033757;28;19951;-55
2023/06/05 05:26:07;;;;;;;;;;;;;;;19.12;100.00;102127.75;5057995;28;20307;-54
2023/06/05 05:28:33;;;;;;;;;;;;;;;18.93;100.00;102116.84;5056153;28;19923;-53
2023/06/05 05:30:58;;;;;;;;;;;;;;;19.29;100.00;102118.00;5037670;28;19983;-53
2023/06/05 05:33:24;;;;;;;;;;;;;;;19.60;98.07;102121.66;5042352;28;19913;-52
2023/06/05 05:35:50;;;;;;;;;;;;;;;19.24;100.00;102115.13;5024520;28;19919;-55
2023/06/05 05:38:17;;;;;;;;;;;;;;;19.51;99.98;102120.31;5036964;28;19990;-54
2023/06/05 05:40:43;;;;;;;;;;;;;;;19.36;98.86;102109.81;5052579;28;19943;-54
2023/06/05 05:43:10;;;;;;;;;;;;;;;19.52;98.17;102116.53;5039744;28;19913;-55
2023/06/05 05:45:38;;;;;;;;;;;;;;;19.56;97.71;102116.91;5035388;28;19920;-52
2023/06/05 05:48:04;;;;;;;;;;;;;;;19.46;98.10;102115.53;5053143;28;19935;-54
2023/06/05 05:50:29;;;;;;;;;;;;;;;19.85;94.96;102119.94;5057688;28;19913;-53
2023/06/05 05:52:55;;;;;;;;;;;;;;;19.68;95.05;102117.81;5056072;28;19980;-56
2023/06/05 05:55:20;;;;;;;;;;;;;;;19.84;94.58;102121.84;5056893;28;19916;-55
2023/06/05 05:57:46;;;;;;;;;;;;;;;19.68;96.64;102119.72;5037539;28;20390;-53
2023/06/05 06:00:12;;;;;;;;;;;;;;;19.84;93.96;102123.72;5057482;28;19932;-56
2023/06/05 06:02:38;;;;;;;;;;;;;;;20.12;89.13;102125.06;5051769;28;19913;-55
2023/06/05 06:05:04;;;;;;;;;;;;;;;19.96;90.60;102123.81;5054883;28;19913;-54
2023/06/05 06:07:31;;;;;;;;;;;;;;;20.03;91.41;102125.38;5053711;28;19956;-56
2023/06/05 06:09:56;;;;;;;;;;;;;;;20.16;91.43;102127.09;5055355;28;19916;-53
2023/06/05 06:12:22;;;;;;;;;;;;;;;20.11;90.83;102131.56;5052246;28;19981;-53
2023/06/05 06:14:48;;;;;;;;;;;;;;;20.13;87.74;102127.56;5053617;28;19913;-55
2023/06/05 06:17:13;;;;;;;;;;;;;;;20.30;88.93;102127.75;5054005;28;19923;-53
2023/06/05 06:19:40;;;;;;;;;;;;;;;20.54;86.29;102121.59;5057280;28;19980;-49
2023/06/05 06:22:11;;;;;;;;;;;;;;;20.48;86.42;102120.63;5055288;28;19919;-56
2023/06/05 06:24:37;;;;;;;;;;;;;;;20.48;85.23;102126.88;5057504;28;20461;-54
2023/06/05 06:27:02;;;;;;;;;;;;;;;20.47;84.82;102127.13;5053894;28;19913;-49
2023/06/05 06:29:28;;;;;;;;;;;;;;;20.38;86.33;102136.63;5054039;28;20001;-51
2023/06/05 06:31:53;;;;;;;;;;;;;;;20.56;85.80;102135.78;5052873;28;19916;-52
2023/06/05 06:34:19;;;;;;;;;;;;;;;20.23;87.64;102131.63;5058460;28;19917;-50
2023/06/05 06:36:46;;;;;;;;;;;;;;;20.44;85.64;102136.56;5054875;28;19972;-52
2023/06/05 06:39:12;;;;;;;;;;;;;;;20.72;84.22;102129.66;5058382;28;19913;-56
2023/06/05 06:41:38;;;;;;;;;;;;;;;20.92;81.87;102129.41;5054927;28;19913;-55
2023/06/05 06:44:04;;;;;;;;;;;;;;;20.81;82.47;102126.66;5055228;28;19913;-52
2023/06/05 06:46:30;;;;;;;;;;;;;;;20.82;79.94;102120.97;5053919;28;19912;-55
2023/06/05 06:48:55;;;;;;;;;;;;;;;20.62;82.06;102123.97;5056617;28;19921;-53
2023/06/05 06:51:24;;;;;;;;;;;;;;;20.80;81.19;102120.38;5053462;28;19924;-54
2023/06/05 06:53:50;;;;;;;;;;;;;;;20.74;81.08;102132.97;5053462;28;19913;-52
2023/06/05 06:56:17;;;;;;;;;;;;;;;20.55;83.26;102132.22;5055747;28;19917;-52
2023/06/05 06:58:43;;;;;;;;;;;;;;;20.66;81.35;102136.03;5055906;28;19913;-55
2023/06/05 07:01:09;;;;;;;;;;;;;;;20.84;78.25;102134.34;5055984;28;19966;-54
2023/06/05 07:03:35;;;;;;;;;;;;;;;21.03;79.04;102140.50;5054873;28;19913;-54
2023/06/05 07:06:00;;;;;;;;;;;;;;;21.28;77.36;102137.59;5054417;28;19964;-55
2023/06/05 07:08:25;;;;;;;;;;;;;;;21.16;77.11;102134.03;5054142;28;19924;-56
2023/06/05 07:10:54;;;;;;;;;;;;;;;21.30;77.51;102137.34;5054187;28;19917;-56
2023/06/05 07:13:19;;;;;;;;;;;;;;;21.52;75.70;102137.59;5054974;28;19956;-54
2023/06/05 07:15:46;;;;;;;;;;;;;;;21.14;76.01;102138.88;5056612;28;19920;-56
2023/06/05 07:18:12;;;;;;;;;;;;;;;21.56;73.94;102138.75;5059073;28;19987;-54
2023/06/05 07:20:38;;;;;;;;;;;;;;;21.66;73.98;102140.91;5058910;28;19913;-55
2023/06/05 07:23:03;;;;;;;;;;;;;;;21.86;72.29;102135.06;5058839;28;19913;-56
2023/06/05 07:25:29;;;;;;;;;;;;;;;21.87;71.91;102142.16;5058694;28;19944;-57
2023/06/05 07:27:55;;;;;;;;;;;;;;;22.03;71.07;102142.50;5058553;28;19926;-52
2023/06/05 07:30:20;;;;;;;;;;;;;;;22.02;72.12;102143.56;5058459;28;19927;-54
2023/06/05 07:32:45;;;;;;;;;;;;;;;22.08;69.93;102144.50;5060917;28;19923;-54
2023/06/05 07:35:12;;;;;;;;;;;;;;;22.09;69.99;102143.44;5057384;28;19917;-56
2023/06/05 07:37:38;;;;;;;;;;;;;;;22.15;69.01;102146.00;5059065;28;19912;-54
2023/06/05 07:40:05;;;;;;;;;;;;;;;22.37;68.36;102142.59;5056165;28;19940;-54
2023/06/05 07:42:31;;;;;;;;;;;;;;;22.44;68.25;102148.75;5058297;28;19917;-52
2023/06/05 07:44:57;;;;;;;;;;;;;;;22.49;68.33;102150.78;5059456;28;19952;-54
2023/06/05 07:47:22;;;;;;;;;;;;;;;22.68;67.56;102148.66;5055731;28;20446;-54
2023/06/05 07:50:00;;;;;;;;;;;;;;;22.76;67.53;102147.44;5056570;28;19913;-54
2023/06/05 07:52:26;;;;;;;;;;;;;;;22.84;66.74;102141.56;5056990;28;19996;-56
2023/06/05 07:54:52;;;;;;;;;;;;;;;23.09;66.03;102142.22;5057922;28;19976;-55
2023/06/05 07:57:18;;;;;;;;;;;;;;;22.93;65.31;102150.16;5057917;28;19928;-54
2023/06/05 07:59:43;;;;;;;;;;;;;;;23.09;64.66;102156.69;5057119;28;19913;-56
2023/06/05 08:02:09;;;;;;;;;;;;;;;23.08;65.81;102151.50;5057344;28;19981;-55
2023/06/05 08:04:35;;;;;;;;;;;;;;;23.18;64.87;102147.03;5053569;28;19913;-51
2023/06/05 08:07:01;;;;;;;;;;;;;;;23.10;64.12;102155.63;5056470;28;19987;-51
2023/06/05 08:09:26;;;;;;;;;;;;;;;23.11;63.58;102149.06;5039523;28;19913;-55
2023/06/05 08:11:52;;;;;;;;;;;;;;;23.49;63.81;102152.13;5038726;28;19917;-54
2023/06/05 08:14:17;;;;;;;;;;;;;;;23.19;65.38;102156.88;5037415;28;19921;-54
2023/06/05 08:16:42;;;;;;;;;;;;;;;23.41;63.21;102145.22;5037517;28;19913;-53
2023/06/05 08:19:08;;;;;;;;;;;;;;;23.78;60.88;102149.25;5037515;28;19937;-51
2023/06/05 08:21:33;;;;;;;;;;;;;;;23.68;60.36;102136.28;5039357;28;19913;-52
2023/06/05 08:23:59;;;;;;;;;;;;;;;23.81;60.34;102143.28;5036460;28;19924;-53
2023/06/05 08:26:25;;;;;;;;;;;;;;;23.94;61.52;102135.78;5038368;28;19963;-55
2023/06/05 08:28:51;;;;;;;;;;;;;;;24.06;60.48;102131.03;5038063;28;19944;-55
2023/06/05 08:31:16;;;;;;;;;;;;;;;23.89;59.71;102139.28;5036650;28;19917;-53
2023/06/05 08:33:42;;;;;;;;;;;;;;;23.99;58.95;102133.09;5033241;28;19921;-56
2023/06/05 08:36:08;;;;;;;;;;;;;;;24.16;59.38;102128.41;5037152;28;19914;-55
2023/06/05 08:38:35;;;;;;;;;;;;;;;24.43;58.71;102133.06;5035115;28;19924;-54
2023/06/05 08:41:02;;;;;;;;;;;;;;;24.60;58.88;102132.13;5038860;28;19924;-56
2023/06/05 08:43:28;;;;;;;;;;;;;;;24.42;58.25;102134.16;5039361;28;19913;-56
2023/06/05 08:45:55;;;;;;;;;;;;;;;24.67;58.51;102130.00;5038053;28;19913;-57
2023/06/05 08:48:21;;;;;;;;;;;;;;;24.73;57.24;102118.03;5039577;28;19948;-57
2023/06/05 08:50:47;;;;;;;;;;;;;;;24.62;57.81;102130.81;5037814;28;19913;-55
2023/06/05 08:53:16;;;;;;;;;;;;;;;24.30;58.17;102125.28;5036790;28;19939;-57
2023/06/05 08:55:41;;;;;;;;;;;;;;;24.61;58.24;102128.31;5037729;28;19913;-55
2023/06/05 08:58:07;;;;;;;;;;;;;;;24.93;56.97;102119.31;5033486;28;19929;-54
2023/06/05 09:00:33;;;;;;;;;;;;;;;25.07;56.54;102114.22;5034103;28;19917;-56
2023/06/05 09:02:59;;;;;;;;;;;;;;;25.03;56.06;102116.66;5034584;28;19917;-53
2023/06/05 09:05:24;;;;;;;;;;;;;;;24.69;57.21;102105.13;5037627;28;19913;-55
2023/06/05 09:07:50;;;;;;;;;;;;;;;24.88;57.15;102108.31;5038500;28;19921;-52
2023/06/05 09:10:26;;;;;;;;;;;;;;;25.26;55.31;102108.28;5046551;28;19920;-51
2023/06/05 09:12:52;;;;;;;;;;;;;;;25.50;54.70;102107.94;5055267;28;19917;-54
2023/06/05 09:15:22;;;;;;;;;;;;;;;25.86;54.52;102114.38;5055685;28;19984;-53
2023/06/05 09:17:47;;;;;;;;;;;;;;;25.73;54.85;102115.72;5032611;28;19941;-58
2023/06/05 09:20:25;;;;;;;;;;;;;;;25.60;55.46;102117.03;5060480;28;19941;-52
2023/06/05 09:22:51;;;;;;;;;;;;;;;26.05;54.15;102111.97;5054534;28;19928;-55
2023/06/05 09:25:16;;;;;;;;;;;;;;;26.08;53.09;102113.38;5058175;28;19996;-56
2023/06/05 09:27:42;;;;;;;;;;;;;;;26.36;53.63;102113.16;5053117;28;19944;-52
2023/06/05 09:30:07;;;;;;;;;;;;;;;26.44;51.86;102110.69;5038535;28;19913;-52
2023/06/05 09:32:32;;;;;;;;;;;;;;;26.59;51.85;102115.38;5060823;28;19928;-57
2023/06/05 09:35:00;;;;;;;;;;;;;;;26.94;51.70;102110.16;5058975;28;19913;-52
2023/06/05 09:37:33;;;;;;;;;;;;;;;27.45;50.33;102109.25;5058097;28;19917;-55
2023/06/05 09:39:58;;;;;;;;;;;;;;;27.93;49.12;102113.47;5059694;28;19952;-55
2023/06/05 09:42:31;;;;;;;;;;;;;;;27.42;49.61;102098.81;5042362;28;19920;-57
2023/06/05 09:45:00;;;;;;;;;;;;;;;27.95;48.48;102115.94;5054131;28;19917;-54
2023/06/05 09:47:25;;;;;;;;;;;;;;;28.58;47.56;102114.41;5058046;28;19990;-56
2023/06/05 09:49:51;;;;;;;;;;;;;;;28.87;46.16;102113.66;5054936;28;19913;-56
2023/06/05 09:52:16;;;;;;;;;;;;;;;29.57;45.04;102117.91;5059462;28;19922;-57
2023/06/05 09:54:45;;;;;;;;;;;;;;;30.31;43.03;102115.81;5056750;28;19913;-56
2023/06/05 09:57:12;;;;;;;;;;;;;;;31.06;42.30;102113.19;5055627;28;19912;-53
2023/06/05 09:59:51;;;;;;;;;;;;;;;31.63;41.07;102119.56;5059329;28;19912;-55
2023/06/05 10:02:17;;;;;;;;;;;;;;;31.91;40.35;102117.56;5057081;28;19917;-55
2023/06/05 10:04:47;;;;;;;;;;;;;;;31.85;39.98;102116.03;5057581;28;19923;-57
2023/06/05 10:07:13;;;;;;;;;;;;;;;32.49;38.20;102109.59;5056977;28;19912;-58
2023/06/05 10:09:39;;;;;;;;;;;;;;;32.93;38.53;102109.06;5056728;28;19952;-55
2023/06/05 10:12:07;;;;;;;;;;;;;;;32.91;37.64;102103.03;5054994;28;19921;-54
2023/06/05 10:14:34;;;;;;;;;;;;;;;32.84;37.26;102111.75;5056626;28;19925;-55
2023/06/05 10:17:01;;;;;;;;;;;;;;;33.71;36.53;102110.47;5055107;28;19943;-57
2023/06/05 10:19:27;;;;;;;;;;;;;;;34.17;35.68;102110.97;5040829;28;19920;-56
2023/06/05 10:21:52;;;;;;;;;;;;;;;34.74;34.67;102112.69;5058625;28;19909;-58
2023/06/05 10:24:23;;;;;;;;;;;;;;;35.37;33.93;102107.72;5059328;28;19913;-57
2023/06/05 10:27:08;;;;;;;;;;;;;;;35.54;33.32;102109.59;5055836;28;19927;-58
2023/06/05 10:29:51;;;;;;;;;;;;;;;35.66;33.39;102111.66;5059224;28;19920;-55
2023/06/05 10:32:29;;;;;;;;;;;;;;;35.99;33.02;102113.69;5059895;28;19940;-57
2023/06/05 10:35:00;;;;;;;;;;;;;;;36.43;32.29;102105.75;5051576;28;19913;-58
2023/06/05 10:38:01;;;;;;;;;;;;;;;36.59;32.01;102105.13;5057140;28;19916;-56
2023/06/05 10:40:27;;;;;;;;;;;;;;;36.89;31.76;102110.50;4994574;28;20095;-55
2023/06/05 10:42:53;;;;;;;;;;;;;;;37.14;30.74;102110.56;5042522;28;19935;-57
2023/06/05 10:45:31;;;;;;;;;;;;;;;36.11;31.41;102101.84;5056502;28;19913;-58
2023/06/05 10:47:57;;;;;;;;;;;;;;;36.87;31.38;102107.25;5053134;28;19912;-58
2023/06/05 10:50:24;;;;;;;;;;;;;;;37.53;30.64;102105.41;5050384;28;19928;-57
2023/06/05 10:52:51;;;;;;;;;;;;;;;37.87;30.23;102110.78;5057055;28;19959;-52
2023/06/05 10:55:17;;;;;;;;;;;;;;;38.57;29.56;102111.56;5065223;28;19927;-58
2023/06/05 10:58:10;;;;;;;;;;;;;;;38.94;28.79;102096.53;5063806;28;19935;-55
2023/06/05 11:00:36;;;;;;;;;;;;;;;38.47;29.40;102106.50;5054188;28;19927;-57
2023/06/05 11:03:01;;;;;;;;;;;;;;;38.70;28.71;102099.09;5058310;28;19920;-58
2023/06/05 11:05:27;;;;;;;;;;;;;;;39.10;28.18;102099.31;5061812;28;19912;-55
2023/06/05 11:08:11;;;;;;;;;;;;;;;39.47;27.75;102096.19;5056101;28;19976;-58
2023/06/05 11:10:36;;;;;;;;;;;;;;;39.63;27.39;102107.31;5058575;28;19925;-58
2023/06/05 11:13:02;;;;;;;;;;;;;;;40.14;26.91;102106.38;5055190;28;19996;-60
2023/06/05 11:15:27;;;;;;;;;;;;;;;40.54;26.69;102100.69;5057588;28;19963;-57
2023/06/05 11:17:53;;;;;;;;;;;;;;;39.61;26.96;102092.06;5057445;28;20752;-58
2023/06/05 11:20:21;;;;;;;;;;;;;;;39.69;27.03;102093.84;5061513;28;20002;-58
2023/06/05 11:22:52;;;;;;;;;;;;;;;40.83;25.96;102090.78;5065006;28;19921;-58
2023/06/05 11:25:24;;;;;;;;;;;;;;;40.90;25.81;102089.28;5058541;28;19928;-58
2023/06/05 11:27:51;;;;;;;;;;;;;;;41.81;25.61;102083.75;5054980;28;19969;-58
2023/06/05 11:30:18;;;;;;;;;;;;;;;41.38;25.10;102088.81;5059303;28;19917;-57
2023/06/05 11:32:43;;;;;;;;;;;;;;;41.72;24.87;102091.66;5060886;28;19958;-55
2023/06/05 11:35:09;;;;;;;;;;;;;;;41.36;24.88;102083.56;5054504;28;19916;-59
2023/06/05 11:37:34;;;;;;;;;;;;;;;41.72;24.74;102083.22;5060182;28;19913;-58
2023/06/05 11:40:04;;;;;;;;;;;;;;;42.54;24.45;102076.88;5061494;28;19913;-58
2023/06/05 11:42:30;;;;;;;;;;;;;;;41.76;24.91;102075.69;5059155;28;19923;-59
2023/06/05 11:44:55;;;;;;;;;;;;;;;42.70;23.56;102073.81;5061095;28;19913;-59
2023/06/05 11:47:24;;;;;;;;;;;;;;;43.15;23.67;102075.72;5057509;28;19917;-59
2023/06/05 11:49:50;;;;;;;;;;;;;;;42.76;23.28;102074.22;5058359;28;19917;-59
2023/06/05 11:52:20;;;;;;;;;;;;;;;42.77;23.77;102070.22;5059064;28;19942;-59
2023/06/05 11:54:53;;;;;;;;;;;;;;;42.88;23.76;102066.72;5053117;28;19918;-59
2023/06/05 11:57:19;;;;;;;;;;;;;;;43.40;23.04;102072.25;5057708;28;19912;-58
2023/06/05 11:59:47;;;;;;;;;;;;;;;42.92;23.21;102074.00;5057668;28;19913;-60
2023/06/05 12:02:13;;;;;;;;;;;;;;;44.03;22.57;102079.72;5055933;28;19917;-59
2023/06/05 12:04:40;;;;;;;;;;;;;;;44.41;22.35;102080.19;5056717;28;19986;-59
2023/06/05 12:07:05;;;;;;;;;;;;;;;44.81;22.38;102078.13;5056062;28;19924;-59
2023/06/05 12:09:31;;;;;;;;;;;;;;;44.90;21.99;102069.25;5058398;28;19951;-59
2023/06/05 12:12:06;;;;;;;;;;;;;;;44.33;22.47;102067.28;5058893;28;19916;-59
2023/06/05 12:14:33;;;;;;;;;;;;;;;45.20;21.69;102067.97;5063679;28;19913;-62
2023/06/05 12:16:58;;;;;;;;;;;;;;;45.42;21.49;102067.91;5060986;28;19936;-60
2023/06/05 12:19:24;;;;;;;;;;;;;;;45.13;21.59;102056.72;5054876;28;19921;-59
2023/06/05 12:21:50;;;;;;;;;;;;;;;45.68;21.38;102063.75;5055445;28;19977;-56
2023/06/05 12:24:24;;;;;;;;;;;;;;;45.31;21.37;102061.50;5056165;28;19920;-59
2023/06/05 12:26:53;;;;;;;;;;;;;;;45.38;21.04;102056.66;5059828;28;19936;-59
2023/06/05 12:29:20;;;;;;;;;;;;;;;45.59;20.81;102052.13;5057923;28;19912;-58
2023/06/05 12:31:46;;;;;;;;;;;;;;;44.17;21.23;102045.91;5061329;28;19917;-57
2023/06/05 12:34:12;;;;;;;;;;;;;;;45.22;21.34;102054.28;5057412;28;19923;-58
2023/06/05 12:36:39;;;;;;;;;;;;;;;45.12;21.24;102049.47;5055784;28;19909;-59